Esfahan Shahid Beheshti International Airport
OIFM : now visible

Airfield :











YOU CAN JOIN US ON...

 
LOGIN :

Register | Disclaimer

   EN    FR    IT 

 









Legend :    VFR   Marginal VFR   IFR   Intensive IFR   Very Intensive IFR
Visi :
Ceiling :
>= 8 km
>= 3000ft
5 to 8 km
1000 to 3000 ft
1500m to 5 km
500 to 1000 ft
800 to 1500m
200 to 500 ft
< 800m
< 200 ft
Symbols :   Thunderstorms  Fog  Heavy snow  Heavy precipitations  Wind > 20 kt






- Airport Elevation : 5059 ft
- IATA code : IFN


OIFM - Esfahan Shahid Beheshti International

CURRENT METAR :
  • 141630Z 33008KT 9999 FEW040 29/M08 Q1012 A2991

EXPIRED METARs :
  • 141600Z 32010KT 9999 FEW040 32/M07 Q1012 A2989
  • 141530Z 34012KT 9999 FEW040 33/M05 Q1011 A2988
  • 141500Z 33012KT 9999 FEW040 34/M06 Q1011 A2987
  • 141430Z 32019KT 9999 FEW040 35/M07 Q1011 A2986
  • 141400Z 31014KT 9999 FEW040 36/M07 Q1010 A2985

TAF TAF OIFM
Valid from the 14 at 12:00 until the 15 at 18:00 UTC


141150Z 1412/1518 28008KT 8000 FEW040
TEMPO 1412/1415 28008G18KT FEW035TCU SCT040 SCT100
TEMPO 1415/1420 32018KT
TEMPO 1501/1506 4000 HZ
TEMPO 1509/1515 28008G20KT FEW035TCU SCT040 SCT100
OIIX FIR / Asia



MET'MAP, your aeronautical weather chart ! - Copyright ORBIFLY December 2007 - Disclaimer

ORBIFLY MET'MAP TEAM :

Programming & Development : Alexandra Zaïnal
Concept & original design : Baudouin d'Aumeries
Assistance for programming : Marc-Olivier Méhu
Technical & hardware support : Manuel Goepfert

Contact : metmap@orbifly.com




SOURCES & CREDITS :

   NOAA       Earth
Advisory